Time;durP1;ratioP1;P1;durP2;ratioP2;P2;SDS_P1;SDS_P2;PMS_P1;PMS_P2;Temp;Humidity;BMP_temperature;BMP_pressure;BME280_temperature;BME280_humidity;BME280_pressure;Samples;Min_cycle;Max_cycle;Signal;HPM_P1;HPM_P2
2022/04/23 00:01:54;;;;;;;37.28;18.02;;;;;;;6.71;62.12;100355.48;1752827;80;26754;-70
2022/04/23 00:04:24;;;;;;;35.60;16.42;;;;;;;6.64;62.17;100356.14;1747512;81;26152;-69
2022/04/23 00:06:51;;;;;;;37.03;16.30;;;;;;;6.64;62.26;100355.27;1755092;80;98939;-70
2022/04/23 00:09:19;;;;;;;36.88;17.00;;;;;;;6.59;62.30;100350.09;1754136;80;25849;-70
2022/04/23 00:11:45;;;;;;;34.00;16.02;;;;;;;6.56;62.39;100345.33;1752855;80;98933;-70
2022/04/23 00:14:11;;;;;;;34.40;16.37;;;;;;;6.50;62.44;100349.92;1754177;80;26702;-70
2022/04/23 00:16:38;;;;;;;29.63;15.80;;;;;;;6.47;62.49;100359.34;1754089;81;25803;-69
2022/04/23 00:19:05;;;;;;;32.75;16.10;;;;;;;6.42;62.54;100349.75;1753288;80;99564;-71
2022/04/23 00:21:30;;;;;;;38.28;18.42;;;;;;;6.37;62.65;100351.22;1752710;81;25720;-69
2022/04/23 00:23:57;;;;;;;40.55;17.32;;;;;;;6.32;62.69;100357.61;1753940;81;99135;-69
2022/04/23 00:26:23;;;;;;;44.00;16.20;;;;;;;6.28;62.78;100358.63;1756286;81;25983;-71
2022/04/23 00:28:49;;;;;;;31.97;15.43;;;;;;;6.23;62.87;100349.91;1756663;80;25734;-70
2022/04/23 00:31:15;;;;;;;28.07;14.10;;;;;;;6.21;62.86;100355.73;1752602;80;98759;-68
2022/04/23 00:33:42;;;;;;;29.05;16.02;;;;;;;6.21;62.96;100348.62;1755138;81;25795;-70
2022/04/23 00:36:11;;;;;;;25.00;14.43;;;;;;;6.21;63.08;100349.08;1754857;80;98757;-69
2022/04/23 00:38:39;;;;;;;30.17;15.58;;;;;;;6.19;63.04;100346.46;1757121;81;25737;-69
2022/04/23 00:41:07;;;;;;;28.00;15.95;;;;;;;6.16;63.11;100348.76;1754825;81;26150;-70
2022/04/23 00:43:36;;;;;;;30.62;15.53;;;;;;;6.12;63.22;100347.10;1746505;81;98556;-69
2022/04/23 00:46:05;;;;;;;28.38;15.35;;;;;;;6.10;63.24;100350.27;1753120;80;25773;-70
2022/04/23 00:48:32;;;;;;;24.05;13.45;;;;;;;6.08;63.34;100348.57;1752051;81;98683;-70
2022/04/23 00:51:01;;;;;;;27.70;13.72;;;;;;;6.07;63.46;100345.04;1754511;81;28137;-70
2022/04/23 00:53:28;;;;;;;27.07;14.98;;;;;;;6.05;63.48;100349.53;1754046;80;98920;-69
2022/04/23 00:55:57;;;;;;;32.15;15.15;;;;;;;6.03;63.63;100351.83;1754836;80;27467;-69
2022/04/23 00:58:26;;;;;;;28.87;15.60;;;;;;;6.02;63.68;100352.28;1754947;81;25726;-70
2022/04/23 01:00:52;;;;;;;31.68;14.85;;;;;;;6.00;63.72;100352.79;1752853;80;98902;-70
2022/04/23 01:03:19;;;;;;;26.97;15.50;;;;;;;5.99;63.77;100352.83;1748951;81;26472;-70
2022/04/23 01:05:47;;;;;;;25.95;14.23;;;;;;;5.99;63.88;100352.37;1752933;80;98925;-71
2022/04/23 01:08:17;;;;;;;29.72;15.63;;;;;;;5.99;63.91;100352.83;1755288;81;27596;-71
2022/04/23 01:10:52;;;;;;;29.27;15.50;;;;;;;5.99;63.97;100357.70;1715033;83;25779;-70
2022/04/23 01:13:18;;;;;;;27.50;14.33;;;;;;;5.98;63.95;100363.94;1708013;83;98852;-70
2022/04/23 01:16:02;;;;;;;31.85;15.60;;;;;;;5.94;64.06;100360.95;1682638;83;26097;-69
2022/04/23 01:18:31;;;;;;;25.52;15.00;;;;;;;5.92;64.10;100360.13;1697146;83;98803;-69
2022/04/23 01:20:59;;;;;;;30.62;16.25;;;;;;;5.89;64.17;100356.22;1721525;82;27571;-69
2022/04/23 01:23:25;;;;;;;29.60;14.43;;;;;;;5.87;64.25;100354.03;1719668;82;98903;-68
2022/04/23 01:25:54;;;;;;;28.85;15.32;;;;;;;5.85;64.35;100343.43;1720012;82;25734;-70
2022/04/23 01:28:22;;;;;;;29.07;15.88;;;;;;;5.82;64.41;100344.85;1719878;81;26087;-70
2022/04/23 01:30:57;;;;;;;31.42;15.35;;;;;;;5.81;64.50;100344.89;1718322;82;98796;-70
2022/04/23 01:33:23;;;;;;;30.50;16.25;;;;;;;5.78;64.51;100345.85;1723557;82;27986;-69
2022/04/23 01:35:51;;;;;;;33.08;16.35;;;;;;;5.77;64.59;100345.90;1719950;82;99415;-68
2022/04/23 01:38:18;;;;;;;29.55;16.30;;;;;;;5.75;64.68;100347.73;1722189;82;25795;-69
2022/04/23 01:40:45;;;;;;;25.77;14.90;;;;;;;5.71;64.70;100346.07;1719370;82;25921;-70
2022/04/23 01:43:13;;;;;;;31.15;15.30;;;;;;;5.68;64.78;100347.48;1718621;82;99573;-70
2022/04/23 01:45:39;;;;;;;32.42;16.80;;;;;;;5.69;64.86;100343.91;1721566;81;27486;-69
2022/04/23 01:48:07;;;;;;;28.90;15.50;;;;;;;5.68;64.91;100340.38;1720760;82;98776;-68
2022/04/23 01:50:37;;;;;;;28.85;15.43;;;;;;;5.69;64.96;100342.13;1719381;82;25767;-69
2022/04/23 01:53:05;;;;;;;29.80;16.12;;;;;;;5.68;65.05;100340.84;1721077;82;26027;-69
2022/04/23 01:55:31;;;;;;;29.02;16.32;;;;;;;5.67;65.07;100347.94;1690196;81;98664;-69
2022/04/23 01:57:58;;;;;;;28.57;15.13;;;;;;;5.67;65.12;100341.75;1741832;81;27405;-70
2022/04/23 02:00:26;;;;;;;31.65;15.93;;;;;;;5.63;65.08;100337.44;1739885;81;98848;-69
2022/04/23 02:02:52;;;;;;;30.48;15.63;;;;;;;5.58;65.19;100338.89;1740180;80;25715;-70
2022/04/23 02:05:18;;;;;;;30.70;16.75;;;;;;;5.57;65.26;100328.30;1725422;80;98906;-68
2022/04/23 02:07:46;;;;;;;26.77;16.07;;;;;;;5.52;65.32;100326.64;1725887;81;26083;-70
2022/04/23 02:10:17;;;;;;;34.25;16.15;;;;;;;5.54;65.42;100326.60;1725140;81;29559;-69
2022/04/23 02:12:45;;;;;;;31.25;15.40;;;;;;;5.55;65.42;100326.56;1720950;81;98734;-70
2022/04/23 02:15:14;;;;;;;32.67;16.90;;;;;;;5.54;65.45;100319.50;1730898;81;25801;-69
2022/04/23 02:17:43;;;;;;;28.73;14.85;;;;;;;5.57;65.54;100324.31;1752910;81;98900;-68
2022/04/23 02:20:13;;;;;;;27.32;15.35;;;;;;;5.55;65.55;100322.57;1749814;80;25842;-68
2022/04/23 02:22:41;;;;;;;28.65;15.08;;;;;;;5.51;65.59;100331.55;1749247;81;27457;-70
2022/04/23 02:25:09;;;;;;;35.03;17.27;;;;;;;5.47;65.65;100333.88;1751859;80;98702;-69
2022/04/23 02:27:49;;;;;;;29.12;15.63;;;;;;;5.44;65.73;100333.09;1753480;81;26512;-70
2022/04/23 02:30:19;;;;;;;33.78;16.10;;;;;;;5.43;65.79;100333.55;1750721;81;98778;-69
2022/04/23 02:32:47;;;;;;;33.48;16.48;;;;;;;5.41;65.85;100334.05;1749764;81;26359;-68
2022/04/23 02:35:16;;;;;;;28.47;16.17;;;;;;;5.40;65.96;100328.77;1752754;81;28108;-70
2022/04/23 02:37:45;;;;;;;28.83;16.30;;;;;;;5.39;65.99;100327.02;1752488;81;98467;-69
2022/04/23 02:40:13;;;;;;;28.35;16.25;;;;;;;5.36;66.03;100325.32;1750065;80;25695;-70
2022/04/23 02:42:39;;;;;;;32.25;15.80;;;;;;;5.35;66.10;100325.36;1750667;81;98715;-69
2022/04/23 02:45:10;;;;;;;25.37;14.75;;;;;;;5.35;66.16;100322.25;1753859;81;26027;-69
2022/04/23 02:47:52;;;;;;;26.02;14.93;;;;;;;5.33;66.21;100326.73;1753327;81;98896;-68
2022/04/23 02:50:34;;;;;;;27.90;16.93;;;;;;;5.31;66.23;100323.25;1748710;81;25805;-70
2022/04/23 02:53:02;;;;;;;28.85;16.23;;;;;;;5.29;66.37;100322.41;1750510;81;26542;-70
2022/04/23 02:55:32;;;;;;;32.67;17.35;;;;;;;5.26;66.33;100322.50;1753313;81;98761;-70
2022/04/23 02:58:09;;;;;;;28.47;16.57;;;;;;;5.25;66.37;100322.08;1731902;81;48996;-70
2022/04/23 03:00:41;;;;;;;32.55;16.73;;;;;;;5.23;66.51;100317.27;1754477;80;98685;-70
2022/04/23 03:03:09;;;;;;;29.32;16.35;;;;;;;5.22;66.50;100314.19;1754513;80;25819;-70
2022/04/23 03:05:37;;;;;;;33.05;18.17;;;;;;;5.21;66.55;100313.77;1755535;80;98874;-69
2022/04/23 03:08:04;;;;;;;39.38;17.30;;;;;;;5.19;66.64;100308.54;1758082;80;26161;-69
2022/04/23 03:10:31;;;;;;;32.55;17.37;;;;;;;5.21;66.72;100311.98;1758067;80;26375;-70
2022/04/23 03:12:57;;;;;;;32.30;16.25;;;;;;;5.20;66.71;100310.25;1756913;80;98776;-69
2022/04/23 03:15:27;;;;;;;35.33;17.12;;;;;;;5.19;66.82;100307.66;1755238;80;25868;-69
2022/04/23 03:18:09;;;;;;;30.37;16.62;;;;;;;5.18;66.84;100304.14;1730910;81;98846;-69
2022/04/23 03:20:38;;;;;;;31.55;16.75;;;;;;;5.17;66.87;100298.41;1732805;82;27513;-70
2022/04/23 03:23:08;;;;;;;30.77;15.65;;;;;;;5.17;66.95;100302.84;1737247;81;25775;-70
2022/04/23 03:25:34;;;;;;;39.08;16.50;;;;;;;5.17;67.01;100306.38;1730987;81;98774;-70
2022/04/23 03:28:01;;;;;;;33.05;15.90;;;;;;;5.18;67.08;100301.94;1734873;81;26311;-69
2022/04/23 03:30:32;;;;;;;32.00;15.93;;;;;;;5.17;67.13;100302.39;1733369;81;98755;-69
2022/04/23 03:32:59;;;;;;;28.25;15.80;;;;;;;5.16;67.13;100297.99;1737577;81;26036;-70
2022/04/23 03:35:26;;;;;;;33.13;17.75;;;;;;;5.16;67.17;100299.31;1735038;81;98873;-69
2022/04/23 03:37:53;;;;;;;32.00;16.62;;;;;;;5.16;67.30;100301.97;1737141;81;28809;-71
2022/04/23 03:40:20;;;;;;;29.27;16.05;;;;;;;5.17;67.35;100298.86;1735242;82;27260;-70
2022/04/23 03:42:48;;;;;;;26.65;16.15;;;;;;;5.15;67.36;100295.38;1730917;81;98967;-70
2022/04/23 03:45:18;;;;;;;31.15;16.48;;;;;;;5.16;67.46;100298.45;1729811;81;26091;-71
2022/04/23 03:47:47;;;;;;;32.08;15.80;;;;;;;5.15;67.51;100299.36;1733946;81;98764;-68
2022/04/23 03:50:16;;;;;;;31.27;15.48;;;;;;;5.13;67.57;100295.41;1714208;82;27488;-69
2022/04/23 03:52:45;;;;;;;30.77;16.57;;;;;;;5.14;67.70;100297.16;1721337;81;26441;-69
2022/04/23 03:55:11;;;;;;;35.75;16.00;;;;;;;5.15;67.76;100298.03;1727674;81;98688;-69
2022/04/23 03:57:53;;;;;;;29.90;16.30;;;;;;;5.14;67.78;100302.47;1741396;81;26089;-69
2022/04/23 04:00:21;;;;;;;31.20;16.32;;;;;;;5.13;67.87;100298.07;1750902;81;97945;-70
2022/04/23 04:02:51;;;;;;;26.60;14.58;;;;;;;5.15;67.98;100303.34;1751268;81;27426;-70
2022/04/23 04:05:18;;;;;;;32.42;15.30;;;;;;;5.15;67.96;100298.03;1754479;80;25779;-70
2022/04/23 04:07:46;;;;;;;30.55;15.75;;;;;;;5.15;68.08;100302.02;1751076;81;98513;-69
2022/04/23 04:10:16;;;;;;;26.02;16.12;;;;;;;5.13;68.17;100299.41;1751411;81;26534;-70
2022/04/23 04:12:43;;;;;;;27.13;15.13;;;;;;;5.12;68.16;100296.33;1748831;80;98631;-69
2022/04/23 04:15:12;;;;;;;27.77;15.95;;;;;;;5.11;68.27;100293.72;1741123;81;29490;-70
2022/04/23 04:17:42;;;;;;;27.27;14.20;;;;;;;5.13;68.40;100295.88;1753830;81;98942;-70
2022/04/23 04:20:14;;;;;;;31.87;16.25;;;;;;;5.13;68.40;100292.76;1733416;81;25738;-69
2022/04/23 04:22:42;;;;;;;27.55;15.55;;;;;;;5.13;68.49;100292.76;1734032;81;26083;-69
2022/04/23 04:25:10;;;;;;;27.60;15.25;;;;;;;5.14;68.56;100297.16;1731961;81;98693;-68
2022/04/23 04:27:37;;;;;;;30.10;15.60;;;;;;;5.15;68.61;100295.38;1755229;81;27372;-70
2022/04/23 04:30:08;;;;;;;31.37;15.10;;;;;;;5.17;68.72;100295.75;1753030;81;98735;-70
2022/04/23 04:32:35;;;;;;;33.00;15.88;;;;;;;5.17;68.71;100294.42;1715601;81;25914;-69
2022/04/23 04:35:02;;;;;;;26.85;15.55;;;;;;;5.17;68.82;100289.11;1711977;81;26071;-70
2022/04/23 04:37:28;;;;;;;25.88;15.43;;;;;;;5.21;68.91;100289.86;1719935;82;98724;-69
2022/04/23 04:39:54;;;;;;;28.77;15.40;;;;;;;5.25;68.91;100293.31;1756685;81;27412;-70
2022/04/23 04:42:23;;;;;;;29.32;16.62;;;;;;;5.27;68.97;100295.47;1754015;80;98886;-69
2022/04/23 04:44:49;;;;;;;29.45;15.83;;;;;;;5.29;69.01;100295.84;1757171;80;25766;-69
2022/04/23 04:47:16;;;;;;;24.90;14.63;;;;;;;5.32;69.10;100289.11;1756405;81;26067;-69
2022/04/23 04:49:42;;;;;;;27.80;15.15;;;;;;;5.33;69.10;100289.53;1748576;81;98564;-70
2022/04/23 04:52:08;;;;;;;27.70;14.45;;;;;;;5.37;69.17;100291.64;1741629;81;27452;-70
2022/04/23 04:54:35;;;;;;;26.80;14.40;;;;;;;5.38;69.18;100293.39;1741763;80;98826;-69
2022/04/23 04:57:02;;;;;;;26.45;15.25;;;;;;;5.38;69.33;100294.72;1742242;81;25752;-69
2022/04/23 04:59:32;;;;;;;29.23;14.20;;;;;;;5.41;69.33;100287.98;1715253;82;98886;-69
2022/04/23 05:02:01;;;;;;;28.55;15.58;;;;;;;5.43;69.39;100298.99;1721723;81;25735;-70
2022/04/23 05:04:28;;;;;;;29.18;14.53;;;;;;;5.47;69.55;100288.69;1720385;82;29598;-69
2022/04/23 05:06:55;;;;;;;27.42;15.08;;;;;;;5.53;69.59;100292.50;1715861;82;98597;-70
2022/04/23 05:09:21;;;;;;;24.12;14.38;;;;;;;5.59;69.70;100286.59;1768049;80;25833;-69
2022/04/23 05:11:47;;;;;;;24.30;15.08;;;;;;;5.68;69.73;100296.51;1768352;79;98894;-69
2022/04/23 05:14:13;;;;;;;27.35;14.45;;;;;;;5.71;69.75;100291.56;1773503;80;25793;-70
2022/04/23 05:16:39;;;;;;;27.60;14.00;;;;;;;5.76;69.76;100298.95;1771988;80;27395;-70
2022/04/23 05:19:05;;;;;;;25.37;14.10;;;;;;;5.80;69.85;100299.27;1771540;79;98596;-69
2022/04/23 05:21:33;;;;;;;25.90;14.03;;;;;;;5.84;69.83;100308.90;1772049;79;25829;-70
2022/04/23 05:23:59;;;;;;;27.90;14.78;;;;;;;5.87;69.88;100301.70;1771876;80;99646;-69
2022/04/23 05:26:25;;;;;;;24.52;13.75;;;;;;;5.93;70.00;100299.36;1773014;80;26169;-70
2022/04/23 05:28:52;;;;;;;30.35;14.33;;;;;;;5.94;70.13;100301.55;1771990;80;27564;-70
2022/04/23 05:31:18;;;;;;;27.60;14.50;;;;;;;5.97;70.25;100304.99;1768628;79;99004;-70
2022/04/23 05:33:44;;;;;;;23.98;13.80;;;;;;;6.04;70.26;100305.68;1776968;79;25813;-69
2022/04/23 05:36:12;;;;;;;24.40;13.30;;;;;;;6.10;70.30;100304.16;1768988;80;98758;-70
2022/04/23 05:38:38;;;;;;;27.90;13.38;;;;;;;6.15;70.30;100304.44;1769845;79;25813;-70
2022/04/23 05:41:05;;;;;;;29.05;13.32;;;;;;;6.23;70.35;100302.88;1772602;80;28231;-70
2022/04/23 05:43:32;;;;;;;22.30;11.93;;;;;;;6.30;70.38;100300.43;1768413;80;99030;-70
2022/04/23 05:46:00;;;;;;;22.05;12.65;;;;;;;6.39;70.38;100303.27;1773544;80;25750;-70
2022/04/23 05:48:27;;;;;;;19.95;12.07;;;;;;;6.46;70.37;100306.14;1770995;79;98810;-70
2022/04/23 05:50:53;;;;;;;25.97;12.33;;;;;;;6.52;70.40;100303.28;1771396;79;25903;-70
2022/04/23 05:53:21;;;;;;;26.40;12.75;;;;;;;6.59;70.39;100307.48;1772946;80;27342;-70
2022/04/23 05:55:50;;;;;;;24.60;11.75;;;;;;;6.67;70.40;100305.45;1771436;79;98422;-69
2022/04/23 05:58:16;;;;;;;20.82;12.40;;;;;;;6.73;70.39;100289.73;1765540;80;25816;-69
2022/04/23 06:00:44;;;;;;;24.30;12.47;;;;;;;6.86;70.41;100303.05;1765311;80;98692;-69
2022/04/23 06:03:12;;;;;;;24.23;11.57;;;;;;;6.96;70.41;100306.27;1764965;80;25976;-69
2022/04/23 06:05:41;;;;;;;20.27;12.40;;;;;;;7.04;70.37;100308.21;1767282;80;99115;-67
2022/04/23 06:08:11;;;;;;;23.47;11.55;;;;;;;7.14;70.33;100303.84;1769924;79;26541;-68
2022/04/23 06:10:39;;;;;;;24.00;11.23;;;;;;;7.23;70.35;100303.98;1767884;80;26401;-68
2022/04/23 06:13:08;;;;;;;24.92;12.07;;;;;;;7.33;70.29;100297.41;1768591;80;98818;-70
2022/04/23 06:15:35;;;;;;;20.75;11.40;;;;;;;7.40;70.22;100302.93;1767965;80;26321;-70
2022/04/23 06:18:05;;;;;;;24.00;12.37;;;;;;;7.47;70.19;100304.45;1762520;80;98861;-70
2022/04/23 06:20:36;;;;;;;21.93;11.22;;;;;;;7.55;70.15;100307.30;1768766;80;25603;-68
2022/04/23 06:23:09;;;;;;;19.42;11.33;;;;;;;7.61;70.13;100304.41;1769284;80;25852;-70
2022/04/23 06:25:37;;;;;;;20.32;10.43;;;;;;;7.70;70.12;100309.41;1769575;80;98967;-71
2022/04/23 06:28:08;;;;;;;21.05;11.70;;;;;;;7.80;70.10;100302.80;1767210;80;25686;-70
2022/04/23 06:30:34;;;;;;;27.15;11.50;;;;;;;7.87;70.00;100300.28;1765382;79;99294;-70
2022/04/23 06:33:03;;;;;;;15.53;9.80;;;;;;;7.96;69.95;100301.73;1768454;79;27181;-69
2022/04/23 06:35:31;;;;;;;18.82;10.75;;;;;;;8.02;69.91;100293.48;1764909;80;98948;-70
2022/04/23 06:37:57;;;;;;;21.95;11.15;;;;;;;8.09;69.84;100296.33;1758454;80;26035;-70
2022/04/23 06:40:23;;;;;;;21.00;10.68;;;;;;;8.17;69.76;100289.36;1761117;80;25844;-70
2022/04/23 06:42:49;;;;;;;22.27;11.65;;;;;;;8.24;69.65;100291.73;1766085;79;98952;-68
2022/04/23 06:45:19;;;;;;;23.60;10.72;;;;;;;8.31;69.60;100290.55;1768062;79;25715;-69
2022/04/23 06:48:04;;;;;;;30.40;12.45;;;;;;;8.39;69.64;100281.80;1763050;79;98893;-69
2022/04/23 06:50:39;;;;;;;25.25;11.20;;;;;;;8.52;69.57;100287.52;1770273;80;26024;-67
2022/04/23 06:53:07;;;;;;;24.75;11.43;;;;;;;8.61;69.43;100288.48;1767376;80;25605;-68
2022/04/23 06:55:33;;;;;;;27.82;11.80;;;;;;;8.69;69.42;100275.67;1764876;80;98916;-69
2022/04/23 06:58:04;;;;;;;20.08;11.53;;;;;;;8.76;69.22;100280.30;1759697;80;25753;-70
2022/04/23 07:00:31;;;;;;;;;;;;;;;8.83;69.20;100277.77;1743767;80;98968;-69
2022/04/23 07:02:58;;;;;;;17.57;11.22;;;;;;;8.94;69.12;100280.86;1742194;80;26083;-70
2022/04/23 07:05:24;;;;;;;18.12;10.40;;;;;;;9.01;68.99;100282.81;1746350;80;25858;-70
2022/04/23 07:08:03;;;;;;;18.82;10.30;;;;;;;9.09;68.86;100283.35;1750793;80;98692;-69
2022/04/23 07:10:32;;;;;;;20.80;11.57;;;;;;;9.17;68.78;100281.22;1745821;80;26211;-69
2022/04/23 07:13:03;;;;;;;20.77;11.18;;;;;;;9.28;68.73;100282.95;1744526;80;98858;-69
2022/04/23 07:15:31;;;;;;;25.80;11.68;;;;;;;9.42;68.62;100275.66;1738625;80;26112;-69
2022/04/23 07:17:59;;;;;;;19.17;11.40;;;;;;;9.52;68.41;100278.33;1736912;81;99373;-68
2022/04/23 07:20:25;;;;;;;25.62;12.40;;;;;;;9.60;68.25;100273.97;1745545;81;27444;-68
2022/04/23 07:25:37;;;;;;;21.20;10.80;;;;;;;9.78;68.04;100270.45;1731300;81;99035;-69
2022/04/23 07:28:11;;;;;;;19.32;10.03;;;;;;;9.88;67.91;100273.11;1747661;80;26007;-70
2022/04/23 07:30:44;;;;;;;19.45;10.03;;;;;;;10.00;67.79;100271.20;1745460;80;99342;-69
2022/04/23 07:37:28;;;;;;;25.25;10.55;;;;;;;10.13;67.61;100267.47;1735837;81;28058;-69
2022/04/23 07:38:26;;;;;;;16.67;9.70;;;;;;;10.35;67.04;100260.64;1732588;81;25797;-68
2022/04/23 07:40:53;;;;;;;21.15;9.60;;;;;;;10.46;66.88;100265.45;1740476;80;28201;-69
2022/04/23 07:43:21;;;;;;;17.73;9.43;;;;;;;10.57;66.68;100254.59;1747926;81;98921;-69
2022/04/23 07:45:47;;;;;;;14.47;9.68;;;;;;;10.68;66.43;100256.27;1743608;81;27363;-68
2022/04/23 07:48:16;;;;;;;15.40;9.80;;;;;;;10.77;66.05;100256.76;1743549;81;98920;-68
2022/04/23 07:50:43;;;;;;;19.70;9.90;;;;;;;10.83;65.82;100254.64;1741125;80;26007;-68
2022/04/23 07:53:09;;;;;;;18.60;8.80;;;;;;;10.96;65.55;100258.91;1744869;80;26138;-69
2022/04/23 07:55:38;;;;;;;14.90;9.05;;;;;;;11.00;65.29;100254.64;1739498;80;99074;-69
2022/04/23 07:58:13;;;;;;;13.13;9.05;;;;;;;11.13;65.10;100252.67;1744626;80;29169;-68
2022/04/23 08:00:36;;;;;;;17.30;8.70;;;;;;;11.20;64.80;100253.62;1739217;80;98908;-69
2022/04/23 08:03:03;;;;;;;18.65;8.90;;;;;;;11.26;64.70;100253.30;1732841;81;26166;-69
2022/04/23 08:05:33;;;;;;;12.63;8.40;;;;;;;11.31;64.27;100245.00;1742399;80;26434;-68
2022/04/23 08:08:06;;;;;;;14.13;7.75;;;;;;;11.42;64.08;100252.02;1739416;80;98669;-68
2022/04/23 08:10:33;;;;;;;13.70;8.20;;;;;;;11.51;63.75;100250.19;1754464;80;27339;-68
2022/04/23 08:13:00;;;;;;;13.53;8.13;;;;;;;11.60;63.31;100246.14;1742999;80;98951;-68
2022/04/23 08:15:26;;;;;;;14.73;8.43;;;;;;;11.68;63.18;100240.75;1743006;80;25845;-68
2022/04/23 08:17:54;;;;;;;14.60;9.25;;;;;;;11.73;62.89;100243.19;1741720;80;99041;-67
2022/04/23 08:20:20;;;;;;;18.85;8.03;;;;;;;11.78;62.65;100241.14;1753326;80;25724;-68
2022/04/23 08:22:46;;;;;;;26.12;9.75;;;;;;;11.84;62.59;100242.62;1742755;80;28118;-68
2022/04/23 08:25:12;;;;;;;14.05;8.68;;;;;;;11.94;62.42;100246.55;1751868;80;98794;-69
2022/04/23 08:27:50;;;;;;;12.53;8.93;;;;;;;11.99;62.08;100238.62;1743181;80;26287;-69
2022/04/23 08:30:36;;;;;;;17.75;8.80;;;;;;;12.06;61.91;100240.48;1745088;80;99117;-67
2022/04/23 08:33:04;;;;;;;15.30;7.95;;;;;;;12.13;61.75;100237.85;1738922;80;25817;-68
2022/04/23 08:35:32;;;;;;;18.90;7.83;;;;;;;12.21;61.71;100242.80;1741563;80;27981;-68
2022/04/23 08:38:00;;;;;;;10.90;7.45;;;;;;;12.30;61.56;100235.55;1741757;80;99029;-67
2022/04/23 08:40:30;;;;;;;16.48;7.85;;;;;;;12.38;61.26;100223.89;1753411;80;25917;-69
2022/04/23 08:42:57;;;;;;;12.85;7.42;;;;;;;12.47;60.99;100232.77;1750750;80;99280;-68
2022/04/23 08:45:25;;;;;;;11.10;7.17;;;;;;;12.50;60.63;100229.91;1745371;80;25829;-70
2022/04/23 08:47:56;;;;;;;12.80;6.33;;;;;;;12.52;60.35;100229.34;1742745;80;99516;-75
2022/04/23 08:50:25;;;;;;;7.65;5.58;;;;;;;12.57;59.93;100230.41;1749231;80;25720;-70
2022/04/23 08:52:56;;;;;;;14.15;6.87;;;;;;;12.67;59.02;100226.23;1754152;80;25858;-70
2022/04/23 08:55:26;;;;;;;10.43;6.00;;;;;;;12.72;58.67;100220.59;1740139;80;98914;-71
2022/04/23 08:57:56;;;;;;;9.13;5.55;;;;;;;12.80;58.77;100219.17;1749837;80;25596;-71
2022/04/23 09:00:23;;;;;;;12.78;5.03;;;;;;;12.91;58.31;100219.88;1760948;79;98882;-71
2022/04/23 09:02:49;;;;;;;24.82;6.37;;;;;;;12.92;58.26;100221.61;1769785;79;25703;-71
2022/04/23 09:05:17;;;;;;;14.20;6.50;;;;;;;13.06;58.25;100216.23;1770877;79;25817;-69
2022/04/23 09:07:56;;;;;;;14.20;5.65;;;;;;;13.16;57.51;100210.72;1770097;79;98811;-70
2022/04/23 09:10:54;;;;;;;8.80;5.15;;;;;;;13.18;57.67;100213.31;1772340;79;25766;-71
2022/04/23 09:13:32;;;;;;;6.80;4.78;;;;;;;13.24;57.43;100204.88;1728106;81;98670;-71
2022/04/23 09:24:48;;;;;;;6.65;4.35;;;;;;;13.64;56.88;100185.76;1762769;79;98620;-69
2022/04/23 09:27:16;;;;;;;4.62;3.87;;;;;;;13.81;56.33;100183.34;1761888;79;27398;-70
2022/04/23 09:30:06;;;;;;;8.73;4.40;;;;;;;13.90;56.29;100182.27;1763497;80;98777;-69
2022/04/23 09:32:35;;;;;;;8.03;4.78;;;;;;;14.07;56.02;100190.61;1768077;79;25840;-70
2022/04/23 09:35:12;;;;;;;11.57;5.30;;;;;;;14.25;55.20;100184.02;1766821;79;25715;-71
2022/04/23 09:40:29;;;;;;;9.73;5.03;;;;;;;14.38;54.43;100185.41;1767879;79;28125;-70
2022/04/23 09:43:03;;;;;;;6.53;4.65;;;;;;;14.46;53.95;100184.45;1766439;79;98739;-73
2022/04/23 09:45:31;;;;;;;7.92;4.72;;;;;;;14.60;54.15;100174.95;1769529;80;26549;-71
2022/04/23 09:48:17;;;;;;;5.95;4.00;;;;;;;14.83;53.69;100175.23;1766598;79;98898;-70
2022/04/23 09:50:47;;;;;;;5.45;3.37;;;;;;;15.00;53.30;100172.72;1767466;80;25717;-70
2022/04/23 09:53:16;;;;;;;6.33;3.65;;;;;;;15.06;52.73;100183.09;1769170;79;27391;-70
2022/04/23 09:55:45;;;;;;;5.58;4.35;;;;;;;15.19;52.60;100169.98;1768421;79;98698;-70
2022/04/23 09:58:20;;;;;;;7.65;3.80;;;;;;;15.36;52.45;100174.69;1769103;80;26423;-68
2022/04/23 10:00:47;;;;;;;5.42;3.50;;;;;;;15.46;52.20;100168.53;1789182;78;98927;-69
2022/04/23 10:03:15;;;;;;;5.55;3.67;;;;;;;15.59;52.08;100173.95;1792504;78;25761;-67
2022/04/23 10:05:49;;;;;;;5.10;3.15;;;;;;;15.77;51.66;100176.66;1791061;78;98953;-67
2022/04/23 10:08:37;;;;;;;7.30;3.52;;;;;;;15.75;51.23;100165.09;1790708;78;25765;-69
2022/04/23 10:11:25;;;;;;;8.60;3.40;;;;;;;15.83;51.15;100166.75;1790486;79;25873;-68
2022/04/23 10:14:04;;;;;;;4.72;3.08;;;;;;;16.05;51.10;100161.98;1789765;79;98785;-69
2022/04/23 10:16:34;;;;;;;7.72;3.15;;;;;;;16.13;50.50;100163.64;1789893;78;25792;-69
2022/04/23 10:19:03;;;;;;;6.33;3.33;;;;;;;16.31;50.52;100160.05;1783887;79;98753;-69
2022/04/23 10:21:43;;;;;;;9.95;3.42;;;;;;;16.39;49.92;100167.11;1788352;78;26405;-66
2022/04/23 10:24:32;;;;;;;8.13;3.87;;;;;;;16.38;49.49;100163.16;1789558;78;99114;-67
2022/04/23 10:27:07;;;;;;;6.50;3.47;;;;;;;16.30;48.73;100162.39;1785152;78;26730;-67
2022/04/23 10:29:34;;;;;;;8.03;3.95;;;;;;;16.26;48.82;100159.53;1793343;78;26202;-67
2022/04/23 10:32:17;;;;;;;5.90;3.90;;;;;;;16.41;48.82;100165.16;1788692;78;98486;-68
2022/04/23 10:34:44;;;;;;;5.45;3.30;;;;;;;16.55;48.55;100159.56;1788205;78;26524;-69
2022/04/23 10:37:24;;;;;;;4.62;4.10;;;;;;;16.80;48.67;100162.65;1787434;78;98644;-67
2022/04/23 10:40:01;;;;;;;5.37;3.75;;;;;;;17.08;48.59;100151.90;1754418;81;26582;-67
2022/04/23 10:42:31;;;;;;;6.33;3.25;;;;;;;17.27;48.54;100166.70;1722846;81;98723;-67
2022/04/23 10:44:57;;;;;;;8.95;4.55;;;;;;;17.33;48.26;100168.44;1724157;82;29081;-69
2022/04/23 10:47:35;;;;;;;11.25;5.65;;;;;;;16.95;46.19;100162.45;1717466;81;25766;-69
2022/04/23 10:50:21;;;;;;;8.78;5.03;;;;;;;16.68;46.92;100159.53;1722426;81;98759;-67
2022/04/23 10:52:50;;;;;;;6.78;4.50;;;;;;;16.70;47.03;100167.53;1756678;80;28077;-69
2022/04/23 10:55:16;;;;;;;8.95;4.00;;;;;;;16.70;47.07;100156.22;1755470;80;98633;-69
2022/04/23 10:57:54;;;;;;;4.55;3.65;;;;;;;16.76;47.07;100150.33;1731849;81;27563;-70
2022/04/23 11:00:30;;;;;;;8.15;4.47;;;;;;;16.83;47.05;100158.35;1722699;80;98925;-68
2022/04/23 11:02:57;;;;;;;10.43;4.57;;;;;;;16.89;47.09;100155.66;1750672;80;25713;-69
2022/04/23 11:14:27;;;;;;;6.05;3.92;;;;;;;16.31;46.34;100151.94;1709192;82;98841;-69
2022/04/23 11:16:58;;;;;;;8.65;4.10;;;;;;;16.35;46.44;100154.79;1750850;81;25705;-69
2022/04/23 11:19:26;;;;;;;7.25;4.72;;;;;;;16.36;46.32;100152.95;1750583;81;98740;-70
2022/04/23 11:21:52;;;;;;;6.60;4.12;;;;;;;16.40;45.94;100149.90;1745850;81;25748;-69
2022/04/23 11:24:18;;;;;;;8.40;3.95;;;;;;;16.28;45.57;100142.70;1751405;80;99045;-70
2022/04/23 11:26:46;;;;;;;11.68;4.45;;;;;;;16.17;45.43;100143.99;1719306;81;26028;-69
2022/04/23 11:29:14;;;;;;;5.35;4.03;;;;;;;16.22;45.64;100148.58;1724613;81;25699;-69
2022/04/23 11:31:44;;;;;;;10.00;4.00;;;;;;;16.27;45.48;100142.33;1717791;83;98806;-70
2022/04/23 11:34:12;;;;;;;10.20;3.43;;;;;;;16.30;45.45;100141.23;1711054;83;26527;-69
2022/04/23 11:36:39;;;;;;;5.05;3.55;;;;;;;16.37;45.56;100137.95;1736281;80;99172;-68
2022/04/23 11:39:09;;;;;;;5.08;4.12;;;;;;;16.39;45.24;100144.11;1733359;80;26560;-69
2022/04/23 11:41:41;;;;;;;7.50;4.10;;;;;;;16.34;45.08;100137.33;1756636;80;26204;-69
2022/04/23 11:47:11;;;;;;;8.78;4.15;;;;;;;16.23;44.90;100134.94;1750336;80;33541;-69
2022/04/23 11:49:38;;;;;;;8.45;4.28;;;;;;;16.24;44.63;100135.31;1685563;83;98678;-68
2022/04/23 11:52:08;;;;;;;7.65;4.47;;;;;;;16.26;44.69;100134.34;1748441;81;26097;-69
2022/04/23 11:54:40;;;;;;;7.87;4.58;;;;;;;16.32;44.62;100132.52;1744301;80;99117;-69
2022/04/23 11:57:10;;;;;;;4.58;3.80;;;;;;;16.29;44.42;100137.67;1720305;83;26123;-70
2022/04/23 11:59:42;;;;;;;6.28;4.37;;;;;;;16.34;44.65;100130.56;1749059;80;25870;-68